sensor_id;sensor_type;location;lat;lon;timestamp;P1;durP1;ratioP1;P2;durP2;ratioP2
10170;SDS011;5127;50.922;6.988;2023-02-28T00:01:25;3.73;;;1.87;;
10170;SDS011;5127;50.922;6.988;2023-02-28T00:03:53;3.97;;;1.97;;
10170;SDS011;5127;50.922;6.988;2023-02-28T00:06:21;4.87;;;2.00;;
10170;SDS011;5127;50.922;6.988;2023-02-28T00:08:49;2.60;;;1.60;;
10170;SDS011;5127;50.922;6.988;2023-02-28T00:11:17;2.97;;;1.80;;
10170;SDS011;5127;50.922;6.988;2023-02-28T00:13:47;3.47;;;2.20;;
10170;SDS011;5127;50.922;6.988;2023-02-28T00:16:15;3.13;;;2.00;;
10170;SDS011;5127;50.922;6.988;2023-02-28T00:18:44;3.47;;;1.83;;
10170;SDS011;5127;50.922;6.988;2023-02-28T00:21:12;3.53;;;1.97;;
10170;SDS011;5127;50.922;6.988;2023-02-28T00:23:40;3.63;;;1.93;;
10170;SDS011;5127;50.922;6.988;2023-02-28T00:26:07;3.87;;;2.17;;
10170;SDS011;5127;50.922;6.988;2023-02-28T00:28:36;2.63;;;1.90;;
10170;SDS011;5127;50.922;6.988;2023-02-28T00:31:05;3.30;;;1.90;;
10170;SDS011;5127;50.922;6.988;2023-02-28T00:33:32;3.57;;;1.90;;
10170;SDS011;5127;50.922;6.988;2023-02-28T00:36:03;2.50;;;1.97;;
10170;SDS011;5127;50.922;6.988;2023-02-28T00:38:31;2.13;;;1.80;;
10170;SDS011;5127;50.922;6.988;2023-02-28T00:40:59;3.90;;;2.30;;
10170;SDS011;5127;50.922;6.988;2023-02-28T00:43:30;3.33;;;2.07;;
10170;SDS011;5127;50.922;6.988;2023-02-28T00:45:58;3.90;;;1.90;;
10170;SDS011;5127;50.922;6.988;2023-02-28T00:48:27;1.70;;;1.60;;
10170;SDS011;5127;50.922;6.988;2023-02-28T00:50:54;3.73;;;2.00;;
10170;SDS011;5127;50.922;6.988;2023-02-28T00:53:21;2.87;;;1.80;;
10170;SDS011;5127;50.922;6.988;2023-02-28T00:55:49;3.07;;;1.70;;
10170;SDS011;5127;50.922;6.988;2023-02-28T00:58:16;3.40;;;1.90;;
10170;SDS011;5127;50.922;6.988;2023-02-28T01:00:43;2.17;;;1.97;;
10170;SDS011;5127;50.922;6.988;2023-02-28T01:03:15;4.80;;;2.23;;
10170;SDS011;5127;50.922;6.988;2023-02-28T01:05:44;3.07;;;1.87;;
10170;SDS011;5127;50.922;6.988;2023-02-28T01:08:13;3.47;;;1.90;;
10170;SDS011;5127;50.922;6.988;2023-02-28T01:10:41;2.87;;;1.87;;
10170;SDS011;5127;50.922;6.988;2023-02-28T01:13:08;2.73;;;1.67;;
10170;SDS011;5127;50.922;6.988;2023-02-28T01:15:36;4.63;;;2.00;;
10170;SDS011;5127;50.922;6.988;2023-02-28T01:18:04;1.67;;;1.47;;
10170;SDS011;5127;50.922;6.988;2023-02-28T01:20:32;2.13;;;1.70;;
10170;SDS011;5127;50.922;6.988;2023-02-28T01:23:02;2.17;;;1.73;;
10170;SDS011;5127;50.922;6.988;2023-02-28T01:25:29;3.50;;;1.60;;
10170;SDS011;5127;50.922;6.988;2023-02-28T01:27:56;2.70;;;1.57;;
10170;SDS011;5127;50.922;6.988;2023-02-28T01:30:26;1.97;;;1.80;;
10170;SDS011;5127;50.922;6.988;2023-02-28T01:32:53;2.57;;;1.70;;
10170;SDS011;5127;50.922;6.988;2023-02-28T01:35:21;3.00;;;1.60;;
10170;SDS011;5127;50.922;6.988;2023-02-28T01:37:48;1.93;;;1.73;;
10170;SDS011;5127;50.922;6.988;2023-02-28T01:40:17;1.80;;;1.60;;
10170;SDS011;5127;50.922;6.988;2023-02-28T01:42:44;3.20;;;1.67;;
10170;SDS011;5127;50.922;6.988;2023-02-28T01:45:18;2.37;;;1.70;;
10170;SDS011;5127;50.922;6.988;2023-02-28T01:47:50;2.77;;;1.60;;
10170;SDS011;5127;50.922;6.988;2023-02-28T01:50:23;1.93;;;1.77;;
10170;SDS011;5127;50.922;6.988;2023-02-28T01:52:52;2.13;;;1.80;;
10170;SDS011;5127;50.922;6.988;2023-02-28T01:55:25;2.93;;;1.97;;
10170;SDS011;5127;50.922;6.988;2023-02-28T01:57:58;3.33;;;1.67;;
10170;SDS011;5127;50.922;6.988;2023-02-28T02:00:28;4.30;;;1.90;;
10170;SDS011;5127;50.922;6.988;2023-02-28T02:02:59;2.80;;;1.53;;
10170;SDS011;5127;50.922;6.988;2023-02-28T02:05:28;2.17;;;1.70;;
10170;SDS011;5127;50.922;6.988;2023-02-28T02:07:58;3.10;;;1.87;;
10170;SDS011;5127;50.922;6.988;2023-02-28T02:10:33;2.63;;;1.50;;
10170;SDS011;5127;50.922;6.988;2023-02-28T02:13:08;2.60;;;1.70;;
10170;SDS011;5127;50.922;6.988;2023-02-28T02:16:01;2.23;;;1.70;;
10170;SDS011;5127;50.922;6.988;2023-02-28T02:18:39;2.37;;;1.60;;
10170;SDS011;5127;50.922;6.988;2023-02-28T02:21:15;2.73;;;1.77;;
10170;SDS011;5127;50.922;6.988;2023-02-28T02:24:18;2.37;;;1.60;;
10170;SDS011;5127;50.922;6.988;2023-02-28T02:27:24;2.27;;;1.70;;
10170;SDS011;5127;50.922;6.988;2023-02-28T02:30:17;2.33;;;1.73;;
10170;SDS011;5127;50.922;6.988;2023-02-28T02:33:12;2.33;;;1.70;;
10170;SDS011;5127;50.922;6.988;2023-02-28T02:35:55;1.73;;;1.63;;
10170;SDS011;5127;50.922;6.988;2023-02-28T02:38:31;2.30;;;1.70;;
10170;SDS011;5127;50.922;6.988;2023-02-28T02:41:04;2.40;;;1.70;;
10170;SDS011;5127;50.922;6.988;2023-02-28T02:43:39;2.87;;;1.70;;
10170;SDS011;5127;50.922;6.988;2023-02-28T02:46:12;2.10;;;1.80;;
10170;SDS011;5127;50.922;6.988;2023-02-28T02:48:44;1.67;;;1.50;;
10170;SDS011;5127;50.922;6.988;2023-02-28T02:51:14;2.47;;;1.50;;
10170;SDS011;5127;50.922;6.988;2023-02-28T02:53:46;1.93;;;1.50;;
10170;SDS011;5127;50.922;6.988;2023-02-28T02:56:17;2.77;;;1.77;;
10170;SDS011;5127;50.922;6.988;2023-02-28T02:58:47;2.00;;;1.63;;
10170;SDS011;5127;50.922;6.988;2023-02-28T03:01:18;3.50;;;2.10;;
10170;SDS011;5127;50.922;6.988;2023-02-28T03:03:54;2.20;;;1.80;;
10170;SDS011;5127;50.922;6.988;2023-02-28T03:06:24;1.67;;;1.57;;
10170;SDS011;5127;50.922;6.988;2023-02-28T03:08:52;3.13;;;1.53;;
10170;SDS011;5127;50.922;6.988;2023-02-28T03:11:22;3.70;;;1.57;;
10170;SDS011;5127;50.922;6.988;2023-02-28T03:14:03;2.37;;;1.80;;
10170;SDS011;5127;50.922;6.988;2023-02-28T03:22:27;1.80;;;1.63;;
10170;SDS011;5127;50.922;6.988;2023-02-28T03:25:07;1.77;;;1.60;;
10170;SDS011;5127;50.922;6.988;2023-02-28T03:27:37;1.83;;;1.70;;
10170;SDS011;5127;50.922;6.988;2023-02-28T03:30:09;4.13;;;1.80;;
10170;SDS011;5127;50.922;6.988;2023-02-28T03:32:40;4.93;;;1.83;;
10170;SDS011;5127;50.922;6.988;2023-02-28T03:35:14;2.50;;;1.80;;
10170;SDS011;5127;50.922;6.988;2023-02-28T03:37:49;2.20;;;1.63;;
10170;SDS011;5127;50.922;6.988;2023-02-28T03:40:20;1.70;;;1.50;;
10170;SDS011;5127;50.922;6.988;2023-02-28T03:42:50;2.10;;;1.83;;
10170;SDS011;5127;50.922;6.988;2023-02-28T03:45:22;1.70;;;1.60;;
10170;SDS011;5127;50.922;6.988;2023-02-28T03:47:52;2.10;;;1.90;;
10170;SDS011;5127;50.922;6.988;2023-02-28T03:50:22;1.93;;;1.50;;
10170;SDS011;5127;50.922;6.988;2023-02-28T03:52:55;3.10;;;1.60;;
10170;SDS011;5127;50.922;6.988;2023-02-28T03:55:27;1.73;;;1.50;;
10170;SDS011;5127;50.922;6.988;2023-02-28T03:58:01;2.37;;;1.67;;
10170;SDS011;5127;50.922;6.988;2023-02-28T04:00:35;1.60;;;1.50;;
10170;SDS011;5127;50.922;6.988;2023-02-28T04:03:05;4.13;;;1.60;;
10170;SDS011;5127;50.922;6.988;2023-02-28T04:05:33;2.93;;;1.60;;
10170;SDS011;5127;50.922;6.988;2023-02-28T04:08:18;2.63;;;1.60;;
10170;SDS011;5127;50.922;6.988;2023-02-28T04:10:46;1.53;;;1.43;;
10170;SDS011;5127;50.922;6.988;2023-02-28T04:13:18;2.10;;;1.70;;
10170;SDS011;5127;50.922;6.988;2023-02-28T04:15:45;1.50;;;1.40;;
10170;SDS011;5127;50.922;6.988;2023-02-28T04:18:12;2.63;;;1.70;;
10170;SDS011;5127;50.922;6.988;2023-02-28T04:20:39;3.50;;;1.77;;
10170;SDS011;5127;50.922;6.988;2023-02-28T04:23:07;3.57;;;1.60;;
10170;SDS011;5127;50.922;6.988;2023-02-28T04:25:35;1.80;;;1.70;;
10170;SDS011;5127;50.922;6.988;2023-02-28T04:28:02;2.27;;;1.80;;
10170;SDS011;5127;50.922;6.988;2023-02-28T04:30:30;1.77;;;1.67;;
10170;SDS011;5127;50.922;6.988;2023-02-28T04:32:58;1.87;;;1.60;;
10170;SDS011;5127;50.922;6.988;2023-02-28T04:35:26;2.43;;;1.70;;
10170;SDS011;5127;50.922;6.988;2023-02-28T04:37:53;3.13;;;2.60;;
10170;SDS011;5127;50.922;6.988;2023-02-28T04:40:20;3.13;;;2.00;;
10170;SDS011;5127;50.922;6.988;2023-02-28T04:42:49;2.60;;;2.00;;
10170;SDS011;5127;50.922;6.988;2023-02-28T04:45:16;2.10;;;1.90;;
10170;SDS011;5127;50.922;6.988;2023-02-28T04:47:43;2.40;;;2.00;;
10170;SDS011;5127;50.922;6.988;2023-02-28T04:50:11;2.33;;;1.80;;
10170;SDS011;5127;50.922;6.988;2023-02-28T04:52:38;2.27;;;1.50;;
10170;SDS011;5127;50.922;6.988;2023-02-28T04:55:05;3.23;;;1.73;;
10170;SDS011;5127;50.922;6.988;2023-02-28T04:57:33;2.43;;;1.70;;
10170;SDS011;5127;50.922;6.988;2023-02-28T05:00:02;1.70;;;1.60;;
10170;SDS011;5127;50.922;6.988;2023-02-28T05:02:33;3.03;;;1.90;;
10170;SDS011;5127;50.922;6.988;2023-02-28T05:05:01;3.20;;;1.90;;
10170;SDS011;5127;50.922;6.988;2023-02-28T05:07:28;3.90;;;1.90;;
10170;SDS011;5127;50.922;6.988;2023-02-28T05:09:55;1.70;;;1.60;;
10170;SDS011;5127;50.922;6.988;2023-02-28T05:12:22;3.30;;;2.10;;
10170;SDS011;5127;50.922;6.988;2023-02-28T05:14:50;1.83;;;1.50;;
10170;SDS011;5127;50.922;6.988;2023-02-28T05:17:19;2.57;;;1.73;;
10170;SDS011;5127;50.922;6.988;2023-02-28T05:19:46;3.80;;;1.80;;
10170;SDS011;5127;50.922;6.988;2023-02-28T05:22:13;4.17;;;1.70;;
10170;SDS011;5127;50.922;6.988;2023-02-28T05:24:42;2.07;;;1.70;;
10170;SDS011;5127;50.922;6.988;2023-02-28T05:27:09;1.63;;;1.50;;
10170;SDS011;5127;50.922;6.988;2023-02-28T05:29:37;2.87;;;1.80;;
10170;SDS011;5127;50.922;6.988;2023-02-28T05:32:08;2.43;;;1.70;;
10170;SDS011;5127;50.922;6.988;2023-02-28T05:34:38;2.53;;;1.53;;
10170;SDS011;5127;50.922;6.988;2023-02-28T05:37:06;2.83;;;1.53;;
10170;SDS011;5127;50.922;6.988;2023-02-28T05:39:37;2.27;;;1.60;;
10170;SDS011;5127;50.922;6.988;2023-02-28T05:42:05;3.03;;;1.83;;
10170;SDS011;5127;50.922;6.988;2023-02-28T05:44:32;1.77;;;1.53;;
10170;SDS011;5127;50.922;6.988;2023-02-28T05:47:00;1.83;;;1.60;;
10170;SDS011;5127;50.922;6.988;2023-02-28T05:49:27;3.37;;;1.80;;
10170;SDS011;5127;50.922;6.988;2023-02-28T05:51:56;2.20;;;1.60;;
10170;SDS011;5127;50.922;6.988;2023-02-28T05:54:23;1.53;;;1.43;;
10170;SDS011;5127;50.922;6.988;2023-02-28T05:56:50;2.30;;;1.80;;
10170;SDS011;5127;50.922;6.988;2023-02-28T05:59:17;2.17;;;1.97;;
10170;SDS011;5127;50.922;6.988;2023-02-28T06:01:45;2.47;;;1.53;;
10170;SDS011;5127;50.922;6.988;2023-02-28T06:04:15;2.50;;;1.60;;
10170;SDS011;5127;50.922;6.988;2023-02-28T06:06:44;1.80;;;1.70;;
10170;SDS011;5127;50.922;6.988;2023-02-28T06:09:13;2.17;;;1.60;;
10170;SDS011;5127;50.922;6.988;2023-02-28T06:11:40;1.93;;;1.70;;
10170;SDS011;5127;50.922;6.988;2023-02-28T06:14:09;2.10;;;1.63;;
10170;SDS011;5127;50.922;6.988;2023-02-28T06:16:41;4.13;;;2.10;;
10170;SDS011;5127;50.922;6.988;2023-02-28T06:19:08;3.20;;;2.03;;
10170;SDS011;5127;50.922;6.988;2023-02-28T06:21:37;2.77;;;2.10;;
10170;SDS011;5127;50.922;6.988;2023-02-28T06:24:05;1.80;;;1.70;;
10170;SDS011;5127;50.922;6.988;2023-02-28T06:26:34;4.00;;;1.90;;
10170;SDS011;5127;50.922;6.988;2023-02-28T06:29:01;2.57;;;1.80;;
10170;SDS011;5127;50.922;6.988;2023-02-28T06:31:28;3.37;;;1.80;;
10170;SDS011;5127;50.922;6.988;2023-02-28T06:33:55;2.17;;;1.90;;
10170;SDS011;5127;50.922;6.988;2023-02-28T06:36:23;2.57;;;1.80;;
10170;SDS011;5127;50.922;6.988;2023-02-28T06:38:50;3.07;;;1.80;;
10170;SDS011;5127;50.922;6.988;2023-02-28T06:41:20;2.17;;;1.93;;
10170;SDS011;5127;50.922;6.988;2023-02-28T06:43:49;3.10;;;2.00;;
10170;SDS011;5127;50.922;6.988;2023-02-28T06:46:17;2.20;;;1.93;;
10170;SDS011;5127;50.922;6.988;2023-02-28T06:48:44;2.30;;;2.10;;
10170;SDS011;5127;50.922;6.988;2023-02-28T06:51:13;2.07;;;1.80;;
10170;SDS011;5127;50.922;6.988;2023-02-28T06:53:42;3.27;;;2.03;;
10170;SDS011;5127;50.922;6.988;2023-02-28T06:56:10;3.07;;;2.30;;
10170;SDS011;5127;50.922;6.988;2023-02-28T06:58:38;2.00;;;1.80;;
10170;SDS011;5127;50.922;6.988;2023-02-28T07:01:07;3.40;;;2.23;;
10170;SDS011;5127;50.922;6.988;2023-02-28T07:03:35;5.23;;;2.10;;
10170;SDS011;5127;50.922;6.988;2023-02-28T07:06:02;2.80;;;2.07;;
10170;SDS011;5127;50.922;6.988;2023-02-28T07:08:31;2.60;;;2.17;;
10170;SDS011;5127;50.922;6.988;2023-02-28T07:10:59;2.67;;;2.17;;
10170;SDS011;5127;50.922;6.988;2023-02-28T07:13:26;2.77;;;2.00;;
10170;SDS011;5127;50.922;6.988;2023-02-28T07:15:54;2.20;;;2.00;;
10170;SDS011;5127;50.922;6.988;2023-02-28T07:18:23;2.43;;;2.20;;
10170;SDS011;5127;50.922;6.988;2023-02-28T07:20:50;2.83;;;2.03;;
10170;SDS011;5127;50.922;6.988;2023-02-28T07:23:18;3.50;;;2.10;;
10170;SDS011;5127;50.922;6.988;2023-02-28T07:25:45;2.17;;;1.97;;
10170;SDS011;5127;50.922;6.988;2023-02-28T07:28:13;6.07;;;2.23;;
10170;SDS011;5127;50.922;6.988;2023-02-28T07:30:40;2.70;;;2.07;;
10170;SDS011;5127;50.922;6.988;2023-02-28T07:33:08;2.57;;;2.20;;
10170;SDS011;5127;50.922;6.988;2023-02-28T07:35:37;3.33;;;2.23;;
10170;SDS011;5127;50.922;6.988;2023-02-28T07:38:05;1.97;;;1.87;;
10170;SDS011;5127;50.922;6.988;2023-02-28T07:40:33;2.00;;;1.90;;
10170;SDS011;5127;50.922;6.988;2023-02-28T07:43:00;2.03;;;1.90;;
10170;SDS011;5127;50.922;6.988;2023-02-28T07:45:27;2.53;;;2.30;;
10170;SDS011;5127;50.922;6.988;2023-02-28T07:47:57;3.27;;;2.07;;
10170;SDS011;5127;50.922;6.988;2023-02-28T07:50:24;2.00;;;1.90;;
10170;SDS011;5127;50.922;6.988;2023-02-28T07:52:54;2.43;;;1.80;;
10170;SDS011;5127;50.922;6.988;2023-02-28T07:55:21;2.70;;;1.80;;
10170;SDS011;5127;50.922;6.988;2023-02-28T07:57:49;2.60;;;2.00;;
10170;SDS011;5127;50.922;6.988;2023-02-28T08:00:16;2.53;;;1.70;;
10170;SDS011;5127;50.922;6.988;2023-02-28T08:02:43;2.40;;;1.90;;
10170;SDS011;5127;50.922;6.988;2023-02-28T08:05:11;2.97;;;1.90;;
10170;SDS011;5127;50.922;6.988;2023-02-28T08:07:38;1.57;;;1.47;;
10170;SDS011;5127;50.922;6.988;2023-02-28T08:10:07;1.70;;;1.60;;
10170;SDS011;5127;50.922;6.988;2023-02-28T08:12:35;3.13;;;1.40;;
10170;SDS011;5127;50.922;6.988;2023-02-28T08:15:03;2.40;;;1.50;;
10170;SDS011;5127;50.922;6.988;2023-02-28T08:17:30;2.90;;;1.60;;
10170;SDS011;5127;50.922;6.988;2023-02-28T08:19:58;1.70;;;1.60;;
10170;SDS011;5127;50.922;6.988;2023-02-28T08:22:25;1.90;;;1.60;;
10170;SDS011;5127;50.922;6.988;2023-02-28T08:24:52;2.17;;;1.60;;
10170;SDS011;5127;50.922;6.988;2023-02-28T08:27:20;1.67;;;1.57;;
10170;SDS011;5127;50.922;6.988;2023-02-28T08:29:48;1.50;;;1.40;;
10170;SDS011;5127;50.922;6.988;2023-02-28T08:32:15;3.03;;;1.50;;
10170;SDS011;5127;50.922;6.988;2023-02-28T08:34:42;2.37;;;1.37;;
10170;SDS011;5127;50.922;6.988;2023-02-28T08:37:09;1.40;;;1.30;;
10170;SDS011;5127;50.922;6.988;2023-02-28T08:39:37;1.40;;;1.20;;
10170;SDS011;5127;50.922;6.988;2023-02-28T08:42:05;2.17;;;1.30;;
10170;SDS011;5127;50.922;6.988;2023-02-28T08:44:34;1.30;;;1.17;;
10170;SDS011;5127;50.922;6.988;2023-02-28T08:47:01;1.40;;;1.30;;
10170;SDS011;5127;50.922;6.988;2023-02-28T08:49:28;0.97;;;0.97;;
10170;SDS011;5127;50.922;6.988;2023-02-28T08:51:55;1.20;;;1.10;;
10170;SDS011;5127;50.922;6.988;2023-02-28T08:54:23;1.23;;;1.13;;
10170;SDS011;5127;50.922;6.988;2023-02-28T08:56:50;1.50;;;1.00;;
10170;SDS011;5127;50.922;6.988;2023-02-28T08:59:17;1.43;;;1.33;;
10170;SDS011;5127;50.922;6.988;2023-02-28T09:01:46;1.13;;;0.90;;
10170;SDS011;5127;50.922;6.988;2023-02-28T09:04:13;1.20;;;1.10;;
10170;SDS011;5127;50.922;6.988;2023-02-28T09:06:40;1.43;;;1.30;;
10170;SDS011;5127;50.922;6.988;2023-02-28T09:09:07;1.60;;;1.47;;
10170;SDS011;5127;50.922;6.988;2023-02-28T09:11:35;2.20;;;1.13;;
10170;SDS011;5127;50.922;6.988;2023-02-28T09:14:02;1.83;;;1.20;;
10170;SDS011;5127;50.922;6.988;2023-02-28T09:16:30;1.07;;;1.00;;
10170;SDS011;5127;50.922;6.988;2023-02-28T09:19:00;2.03;;;1.17;;
10170;SDS011;5127;50.922;6.988;2023-02-28T09:21:27;2.63;;;1.00;;
10170;SDS011;5127;50.922;6.988;2023-02-28T09:23:54;1.00;;;1.00;;
10170;SDS011;5127;50.922;6.988;2023-02-28T09:26:22;1.10;;;1.00;;
10170;SDS011;5127;50.922;6.988;2023-02-28T09:28:51;1.40;;;1.00;;
10170;SDS011;5127;50.922;6.988;2023-02-28T09:31:20;0.93;;;0.93;;
10170;SDS011;5127;50.922;6.988;2023-02-28T09:33:48;1.20;;;1.10;;
10170;SDS011;5127;50.922;6.988;2023-02-28T09:36:18;0.90;;;0.90;;
10170;SDS011;5127;50.922;6.988;2023-02-28T09:38:46;1.33;;;1.20;;
10170;SDS011;5127;50.922;6.988;2023-02-28T09:41:14;1.50;;;1.17;;
10170;SDS011;5127;50.922;6.988;2023-02-28T09:43:44;0.93;;;0.80;;
10170;SDS011;5127;50.922;6.988;2023-02-28T09:46:25;2.27;;;1.00;;
10170;SDS011;5127;50.922;6.988;2023-02-28T09:48:56;1.13;;;0.90;;
10170;SDS011;5127;50.922;6.988;2023-02-28T09:51:30;1.13;;;1.03;;
10170;SDS011;5127;50.922;6.988;2023-02-28T09:54:04;2.80;;;0.97;;
10170;SDS011;5127;50.922;6.988;2023-02-28T09:56:33;1.63;;;1.20;;
10170;SDS011;5127;50.922;6.988;2023-02-28T09:59:06;2.27;;;1.13;;
10170;SDS011;5127;50.922;6.988;2023-02-28T10:01:43;1.10;;;1.00;;
10170;SDS011;5127;50.922;6.988;2023-02-28T10:04:22;1.20;;;1.10;;
10170;SDS011;5127;50.922;6.988;2023-02-28T10:07:05;3.40;;;1.20;;
10170;SDS011;5127;50.922;6.988;2023-02-28T10:09:43;2.30;;;1.10;;
10170;SDS011;5127;50.922;6.988;2023-02-28T10:12:13;1.20;;;1.10;;
10170;SDS011;5127;50.922;6.988;2023-02-28T10:14:43;1.20;;;1.10;;
10170;SDS011;5127;50.922;6.988;2023-02-28T10:17:13;4.13;;;1.20;;
10170;SDS011;5127;50.922;6.988;2023-02-28T10:19:47;1.20;;;1.10;;
10170;SDS011;5127;50.922;6.988;2023-02-28T10:22:24;1.40;;;1.30;;
10170;SDS011;5127;50.922;6.988;2023-02-28T10:24:55;2.70;;;1.63;;
10170;SDS011;5127;50.922;6.988;2023-02-28T10:27:29;1.30;;;1.07;;
10170;SDS011;5127;50.922;6.988;2023-02-28T10:29:58;1.43;;;1.30;;
10170;SDS011;5127;50.922;6.988;2023-02-28T10:32:26;1.47;;;1.30;;
10170;SDS011;5127;50.922;6.988;2023-02-28T10:34:57;2.10;;;1.70;;
10170;SDS011;5127;50.922;6.988;2023-02-28T10:37:28;1.60;;;1.50;;
10170;SDS011;5127;50.922;6.988;2023-02-28T10:39:57;2.00;;;1.50;;
10170;SDS011;5127;50.922;6.988;2023-02-28T10:42:25;1.57;;;1.27;;
10170;SDS011;5127;50.922;6.988;2023-02-28T10:45:06;1.30;;;1.20;;
10170;SDS011;5127;50.922;6.988;2023-02-28T10:47:40;1.70;;;1.47;;
10170;SDS011;5127;50.922;6.988;2023-02-28T10:50:29;1.70;;;1.30;;
10170;SDS011;5127;50.922;6.988;2023-02-28T10:53:16;2.00;;;1.20;;
10170;SDS011;5127;50.922;6.988;2023-02-28T10:55:58;1.60;;;1.30;;
10170;SDS011;5127;50.922;6.988;2023-02-28T10:58:28;4.23;;;1.43;;
10170;SDS011;5127;50.922;6.988;2023-02-28T11:00:57;2.97;;;1.30;;
10170;SDS011;5127;50.922;6.988;2023-02-28T11:03:29;1.30;;;1.20;;
10170;SDS011;5127;50.922;6.988;2023-02-28T11:05:58;1.80;;;1.47;;
10170;SDS011;5127;50.922;6.988;2023-02-28T11:08:32;1.47;;;1.37;;
10170;SDS011;5127;50.922;6.988;2023-02-28T11:11:01;2.40;;;1.40;;
10170;SDS011;5127;50.922;6.988;2023-02-28T11:13:32;2.83;;;1.50;;
10170;SDS011;5127;50.922;6.988;2023-02-28T11:16:03;1.30;;;1.20;;
10170;SDS011;5127;50.922;6.988;2023-02-28T11:18:34;1.97;;;1.63;;
10170;SDS011;5127;50.922;6.988;2023-02-28T11:21:07;2.07;;;1.50;;
10170;SDS011;5127;50.922;6.988;2023-02-28T11:23:39;2.20;;;1.70;;
10170;SDS011;5127;50.922;6.988;2023-02-28T11:26:07;1.50;;;1.40;;
10170;SDS011;5127;50.922;6.988;2023-02-28T11:28:37;1.40;;;1.30;;
10170;SDS011;5127;50.922;6.988;2023-02-28T11:31:14;2.40;;;1.50;;
10170;SDS011;5127;50.922;6.988;2023-02-28T11:33:46;1.33;;;1.23;;
10170;SDS011;5127;50.922;6.988;2023-02-28T11:36:17;2.30;;;1.30;;
10170;SDS011;5127;50.922;6.988;2023-02-28T11:38:48;1.53;;;1.27;;
10170;SDS011;5127;50.922;6.988;2023-02-28T11:41:22;1.57;;;1.47;;
10170;SDS011;5127;50.922;6.988;2023-02-28T11:44:01;1.43;;;1.33;;
10170;SDS011;5127;50.922;6.988;2023-02-28T11:46:37;1.60;;;1.50;;
10170;SDS011;5127;50.922;6.988;2023-02-28T11:49:13;2.30;;;1.30;;
10170;SDS011;5127;50.922;6.988;2023-02-28T11:51:55;1.57;;;1.20;;
10170;SDS011;5127;50.922;6.988;2023-02-28T11:54:33;2.10;;;1.40;;
10170;SDS011;5127;50.922;6.988;2023-02-28T11:57:20;1.77;;;1.67;;
10170;SDS011;5127;50.922;6.988;2023-02-28T12:00:57;1.53;;;1.43;;
10170;SDS011;5127;50.922;6.988;2023-02-28T12:03:43;4.17;;;1.57;;
10170;SDS011;5127;50.922;6.988;2023-02-28T12:06:21;1.87;;;1.60;;
10170;SDS011;5127;50.922;6.988;2023-02-28T12:08:59;1.90;;;1.60;;
10170;SDS011;5127;50.922;6.988;2023-02-28T12:11:36;2.33;;;1.60;;
10170;SDS011;5127;50.922;6.988;2023-02-28T12:14:19;1.70;;;1.60;;
10170;SDS011;5127;50.922;6.988;2023-02-28T12:17:12;2.10;;;1.60;;
10170;SDS011;5127;50.922;6.988;2023-02-28T12:19:48;2.67;;;1.73;;
10170;SDS011;5127;50.922;6.988;2023-02-28T12:22:28;1.97;;;1.50;;
10170;SDS011;5127;50.922;6.988;2023-02-28T12:27:52;2.73;;;1.60;;
10170;SDS011;5127;50.922;6.988;2023-02-28T12:30:21;2.00;;;1.87;;
10170;SDS011;5127;50.922;6.988;2023-02-28T12:32:52;1.67;;;1.57;;
10170;SDS011;5127;50.922;6.988;2023-02-28T12:35:24;4.80;;;3.00;;
10170;SDS011;5127;50.922;6.988;2023-02-28T12:37:55;3.37;;;2.00;;
10170;SDS011;5127;50.922;6.988;2023-02-28T12:40:31;2.40;;;1.80;;
10170;SDS011;5127;50.922;6.988;2023-02-28T12:43:09;1.63;;;1.53;;
10170;SDS011;5127;50.922;6.988;2023-02-28T12:45:40;1.83;;;1.63;;
10170;SDS011;5127;50.922;6.988;2023-02-28T12:48:11;2.07;;;1.87;;
10170;SDS011;5127;50.922;6.988;2023-02-28T12:50:45;2.77;;;2.00;;
10170;SDS011;5127;50.922;6.988;2023-02-28T12:53:15;2.53;;;1.93;;
10170;SDS011;5127;50.922;6.988;2023-02-28T12:55:50;1.80;;;1.70;;
10170;SDS011;5127;50.922;6.988;2023-02-28T12:58:29;2.77;;;2.10;;
10170;SDS011;5127;50.922;6.988;2023-02-28T13:01:04;2.27;;;2.07;;
10170;SDS011;5127;50.922;6.988;2023-02-28T13:04:15;2.57;;;2.20;;
10170;SDS011;5127;50.922;6.988;2023-02-28T13:07:08;3.70;;;1.83;;
10170;SDS011;5127;50.922;6.988;2023-02-28T13:09:59;3.50;;;2.40;;
10170;SDS011;5127;50.922;6.988;2023-02-28T13:12:28;2.53;;;1.70;;
10170;SDS011;5127;50.922;6.988;2023-02-28T13:15:03;2.27;;;2.07;;
10170;SDS011;5127;50.922;6.988;2023-02-28T13:17:38;2.87;;;2.10;;
10170;SDS011;5127;50.922;6.988;2023-02-28T13:20:14;2.33;;;2.10;;
10170;SDS011;5127;50.922;6.988;2023-02-28T13:22:44;2.53;;;2.20;;
10170;SDS011;5127;50.922;6.988;2023-02-28T13:31:33;2.40;;;2.10;;
10170;SDS011;5127;50.922;6.988;2023-02-28T13:34:39;3.67;;;2.00;;
10170;SDS011;5127;50.922;6.988;2023-02-28T13:40:07;1.83;;;1.70;;
10170;SDS011;5127;50.922;6.988;2023-02-28T13:42:54;2.30;;;2.10;;
10170;SDS011;5127;50.922;6.988;2023-02-28T13:45:23;2.30;;;2.10;;
10170;SDS011;5127;50.922;6.988;2023-02-28T13:47:53;2.63;;;2.07;;
10170;SDS011;5127;50.922;6.988;2023-02-28T13:50:27;3.27;;;2.40;;
10170;SDS011;5127;50.922;6.988;2023-02-28T13:53:00;2.60;;;2.23;;
10170;SDS011;5127;50.922;6.988;2023-02-28T13:55:51;2.53;;;2.30;;
10170;SDS011;5127;50.922;6.988;2023-02-28T13:58:34;2.33;;;2.10;;
10170;SDS011;5127;50.922;6.988;2023-02-28T14:01:21;2.20;;;2.00;;
10170;SDS011;5127;50.922;6.988;2023-02-28T14:04:10;2.57;;;2.30;;
10170;SDS011;5127;50.922;6.988;2023-02-28T14:07:18;2.10;;;2.00;;
10170;SDS011;5127;50.922;6.988;2023-02-28T14:09:51;3.00;;;2.37;;
10170;SDS011;5127;50.922;6.988;2023-02-28T14:15:30;2.40;;;2.20;;
10170;SDS011;5127;50.922;6.988;2023-02-28T14:18:17;2.50;;;2.10;;
10170;SDS011;5127;50.922;6.988;2023-02-28T14:20:57;2.40;;;2.20;;
10170;SDS011;5127;50.922;6.988;2023-02-28T14:26:51;2.20;;;2.00;;
10170;SDS011;5127;50.922;6.988;2023-02-28T14:29:30;2.50;;;2.30;;
10170;SDS011;5127;50.922;6.988;2023-02-28T14:32:11;2.30;;;2.10;;
10170;SDS011;5127;50.922;6.988;2023-02-28T14:34:49;2.20;;;2.00;;
10170;SDS011;5127;50.922;6.988;2023-02-28T14:37:23;2.67;;;2.47;;
10170;SDS011;5127;50.922;6.988;2023-02-28T14:39:55;2.17;;;1.93;;
10170;SDS011;5127;50.922;6.988;2023-02-28T14:42:27;3.73;;;2.20;;
10170;SDS011;5127;50.922;6.988;2023-02-28T14:44:56;3.50;;;2.40;;
10170;SDS011;5127;50.922;6.988;2023-02-28T14:47:25;3.33;;;2.50;;
10170;SDS011;5127;50.922;6.988;2023-02-28T14:49:55;3.63;;;2.20;;
10170;SDS011;5127;50.922;6.988;2023-02-28T14:52:23;2.20;;;2.00;;
10170;SDS011;5127;50.922;6.988;2023-02-28T14:54:56;2.67;;;2.47;;
10170;SDS011;5127;50.922;6.988;2023-02-28T14:57:26;2.50;;;2.23;;
10170;SDS011;5127;50.922;6.988;2023-02-28T14:59:59;2.27;;;2.07;;
10170;SDS011;5127;50.922;6.988;2023-02-28T15:02:30;2.60;;;2.40;;
10170;SDS011;5127;50.922;6.988;2023-02-28T15:05:00;2.00;;;1.90;;
10170;SDS011;5127;50.922;6.988;2023-02-28T15:07:44;2.87;;;2.60;;
10170;SDS011;5127;50.922;6.988;2023-02-28T15:10:16;2.97;;;2.60;;
10170;SDS011;5127;50.922;6.988;2023-02-28T15:12:46;3.03;;;2.50;;
10170;SDS011;5127;50.922;6.988;2023-02-28T15:15:19;2.60;;;2.40;;
10170;SDS011;5127;50.922;6.988;2023-02-28T15:17:49;3.10;;;2.50;;
10170;SDS011;5127;50.922;6.988;2023-02-28T15:20:18;2.90;;;2.60;;
10170;SDS011;5127;50.922;6.988;2023-02-28T15:22:47;2.20;;;2.10;;
10170;SDS011;5127;50.922;6.988;2023-02-28T15:25:19;3.37;;;2.40;;
10170;SDS011;5127;50.922;6.988;2023-02-28T15:27:49;4.13;;;2.40;;
10170;SDS011;5127;50.922;6.988;2023-02-28T15:30:20;2.67;;;2.30;;
10170;SDS011;5127;50.922;6.988;2023-02-28T15:33:06;2.73;;;2.00;;
10170;SDS011;5127;50.922;6.988;2023-02-28T15:35:45;2.63;;;2.30;;
10170;SDS011;5127;50.922;6.988;2023-02-28T15:38:14;2.93;;;2.40;;
10170;SDS011;5127;50.922;6.988;2023-02-28T15:40:46;3.13;;;2.17;;
10170;SDS011;5127;50.922;6.988;2023-02-28T15:43:23;3.27;;;2.30;;
10170;SDS011;5127;50.922;6.988;2023-02-28T15:45:54;2.33;;;2.13;;
10170;SDS011;5127;50.922;6.988;2023-02-28T15:48:24;2.83;;;2.57;;
10170;SDS011;5127;50.922;6.988;2023-02-28T15:50:54;2.23;;;2.03;;
10170;SDS011;5127;50.922;6.988;2023-02-28T15:53:23;3.00;;;2.27;;